Time;durP1;ratioP1;P1;durP2;ratioP2;P2;SDS_P1;SDS_P2;PMS_P1;PMS_P2;Temp;Humidity;BMP_temperature;BMP_pressure;BME280_temperature;BME280_humidity;BME280_pressure;Samples;Min_cycle;Max_cycle;Signal;HPM_P1;HPM_P2
2022/11/24 00:01:02;;;;;;;;;;;9.50;99.90;;;;;;5095245;28;19944;-71
2022/11/24 00:03:28;;;;;;;;;;;9.50;99.90;;;;;;5094646;28;20382;-71
2022/11/24 00:05:53;;;;;;;;;;;9.50;99.90;;;;;;5094602;28;19961;-71
2022/11/24 00:08:19;;;;;;;;;;;9.50;99.90;;;;;;5094547;28;19951;-72
2022/11/24 00:10:44;;;;;;;;;;;9.50;99.90;;;;;;5094498;28;19908;-71
2022/11/24 00:13:10;;;;;;;;;;;9.50;99.90;;;;;;5094688;28;19912;-70
2022/11/24 00:15:35;;;;;;;;;;;9.40;99.90;;;;;;5094416;28;19977;-72
2022/11/24 00:18:01;;;;;;;;;;;9.40;99.90;;;;;;5094656;28;19909;-70
2022/11/24 00:20:26;;;;;;;;;;;9.40;99.90;;;;;;5094353;28;19908;-72
2022/11/24 00:22:52;;;;;;;;;;;9.40;99.90;;;;;;5093453;28;19908;-72
2022/11/24 00:25:17;;;;;;;;;;;9.30;99.90;;;;;;5094227;28;20377;-70
2022/11/24 00:27:43;;;;;;;;;;;9.30;99.90;;;;;;5094211;28;20048;-71
2022/11/24 00:30:09;;;;;;;;;;;9.30;99.90;;;;;;5094472;28;19957;-72
2022/11/24 00:32:34;;;;;;;;;;;9.30;99.90;;;;;;5075894;28;19919;-72
2022/11/24 00:35:00;;;;;;;;;;;9.30;99.90;;;;;;5094089;28;19965;-71
2022/11/24 00:37:25;;;;;;;;;;;9.40;99.90;;;;;;5094279;28;20386;-71
2022/11/24 00:39:51;;;;;;;;;;;9.40;99.90;;;;;;5094271;28;20328;-72
2022/11/24 00:42:17;;;;;;;;;;;9.40;99.90;;;;;;5093968;28;19908;-71
2022/11/24 00:44:42;;;;;;;;;;;9.40;99.90;;;;;;5093921;28;20366;-73
2022/11/24 00:47:08;;;;;;;;;;;9.50;99.90;;;;;;5094226;28;19914;-72
2022/11/24 00:49:35;;;;;;;;;;;9.40;99.90;;;;;;5093898;28;19961;-71
2022/11/24 00:52:00;;;;;;;;;;;9.40;99.90;;;;;;5093666;28;20011;-72
2022/11/24 00:54:26;;;;;;;;;;;9.50;99.90;;;;;;5093776;28;20011;-71
2022/11/24 00:56:51;;;;;;;;;;;9.50;99.90;;;;;;5093843;28;19908;-70
2022/11/24 00:59:17;;;;;;;;;;;9.50;99.90;;;;;;5094619;28;20429;-70
2022/11/24 01:01:42;;;;;;;;;;;9.50;99.90;;;;;;5093787;28;20362;-72
2022/11/24 01:04:08;;;;;;;;;;;9.50;99.90;;;;;;5094005;28;20365;-71
2022/11/24 01:06:34;;;;;;;;;;;9.50;99.90;;;;;;5093718;28;19912;-71
2022/11/24 01:09:00;;;;;;;;;;;9.50;99.90;;;;;;5093686;28;19914;-72
2022/11/24 01:11:27;;;;;;;;;;;9.50;99.90;;;;;;5094201;28;19908;-72
2022/11/24 01:13:57;;;;;;;;;;;9.50;99.90;;;;;;5093544;28;19912;-70
2022/11/24 01:16:24;;;;;;;;;;;9.50;99.90;;;;;;5094166;28;19908;-70
2022/11/24 01:18:50;;;;;;;;;;;9.50;99.90;;;;;;5093628;28;19908;-71
2022/11/24 01:21:16;;;;;;;;;;;9.50;99.90;;;;;;5093582;28;20011;-71
2022/11/24 01:23:42;;;;;;;;;;;9.50;99.90;;;;;;5093851;28;19912;-71
2022/11/24 01:26:09;;;;;;;;;;;9.40;99.90;;;;;;5093505;28;19914;-71
2022/11/24 01:28:35;;;;;;;;;;;9.50;99.90;;;;;;5093527;28;20281;-71
2022/11/24 01:31:01;;;;;;;;;;;9.40;99.90;;;;;;5093463;28;19947;-73
2022/11/24 01:33:27;;;;;;;;;;;9.40;99.90;;;;;;5093843;28;19912;-70
2022/11/24 01:35:53;;;;;;;;;;;9.30;99.90;;;;;;5096762;28;19908;-70
2022/11/24 01:38:19;;;;;;;;;;;9.20;99.90;;;;;;5097488;28;19908;-72
2022/11/24 01:40:44;;;;;;;;;;;9.20;99.90;;;;;;5097690;28;19920;-72
2022/11/24 01:43:17;;;;;;;;;;;9.30;99.90;;;;;;5097301;28;19953;-71
2022/11/24 01:45:43;;;;;;;;;;;9.20;99.90;;;;;;5097334;28;19908;-71
2022/11/24 01:48:38;;;;;;;;;;;9.30;99.90;;;;;;5097820;28;19915;-71
2022/11/24 01:51:09;;;;;;;;;;;9.20;99.90;;;;;;5083959;28;19914;-70
2022/11/24 01:53:34;;;;;;;;;;;9.20;99.90;;;;;;5096654;28;20383;-71
2022/11/24 01:56:00;;;;;;;;;;;9.20;99.90;;;;;;5097123;28;19940;-70
2022/11/24 01:58:27;;;;;;;;;;;9.20;99.90;;;;;;5097629;28;20415;-72
2022/11/24 02:00:53;;;;;;;;;;;9.20;99.90;;;;;;5097530;28;19908;-72
2022/11/24 02:03:21;;;;;;;;;;;9.10;99.90;;;;;;5096974;28;19957;-70
2022/11/24 02:05:58;;;;;;;;;;;9.20;99.90;;;;;;5097471;28;19908;-71
2022/11/24 02:08:33;;;;;;;;;;;9.20;99.90;;;;;;5096954;28;19908;-70
2022/11/24 02:10:59;;;;;;;;;;;9.20;99.90;;;;;;5097184;28;19958;-71
2022/11/24 02:13:25;;;;;;;;;;;9.20;99.90;;;;;;5096725;28;19912;-71
2022/11/24 02:15:51;;;;;;;;;;;9.20;99.90;;;;;;5096770;28;19915;-71
2022/11/24 02:18:17;;;;;;;;;;;9.20;99.90;;;;;;5096926;28;19915;-71
2022/11/24 02:20:42;;;;;;;;;;;9.20;99.90;;;;;;5096608;28;20282;-70
2022/11/24 02:23:28;;;;;;;;;;;9.30;99.90;;;;;;5096580;28;19908;-72
2022/11/24 02:26:13;;;;;;;;;;;9.30;99.90;;;;;;5096526;28;19908;-71
2022/11/24 02:28:38;;;;;;;;;;;9.30;99.90;;;;;;5097080;28;19957;-72
2022/11/24 02:31:04;;;;;;;;;;;9.20;99.90;;;;;;5096483;28;20392;-71
2022/11/24 02:33:30;;;;;;;;;;;9.20;99.90;;;;;;5096052;28;20267;-72
2022/11/24 02:35:55;;;;;;;;;;;9.20;99.90;;;;;;5096371;28;19914;-72
2022/11/24 02:38:31;;;;;;;;;;;9.20;99.90;;;;;;5096627;28;20273;-71
2022/11/24 02:40:57;;;;;;;;;;;9.20;99.90;;;;;;5096230;28;19915;-70
2022/11/24 02:43:24;;;;;;;;;;;9.20;99.90;;;;;;5096148;28;19911;-70
2022/11/24 02:45:50;;;;;;;;;;;9.20;99.90;;;;;;5095826;28;19919;-71
2022/11/24 02:48:15;;;;;;;;;;;9.20;99.90;;;;;;5096024;28;19912;-71
2022/11/24 02:50:41;;;;;;;;;;;9.10;99.90;;;;;;5096062;28;19938;-71
2022/11/24 02:53:07;;;;;;;;;;;9.00;99.90;;;;;;5095759;28;19959;-70
2022/11/24 02:55:32;;;;;;;;;;;9.00;99.90;;;;;;5077850;28;20380;-71
2022/11/24 02:57:59;;;;;;;;;;;9.00;99.90;;;;;;5095468;28;20594;-72
2022/11/24 03:00:25;;;;;;;;;;;9.00;99.90;;;;;;5096733;28;19908;-71
2022/11/24 03:02:51;;;;;;;;;;;8.90;99.90;;;;;;5096141;28;20423;-72
2022/11/24 03:05:16;;;;;;;;;;;8.80;99.90;;;;;;5077722;28;19970;-71
2022/11/24 03:07:42;;;;;;;;;;;8.80;99.90;;;;;;5095703;28;19908;-71
2022/11/24 03:10:07;;;;;;;;;;;8.70;99.90;;;;;;5095704;28;19991;-72
2022/11/24 03:12:33;;;;;;;;;;;8.70;99.90;;;;;;5095936;28;19939;-72
2022/11/24 03:14:58;;;;;;;;;;;8.60;99.90;;;;;;5095491;28;19912;-73
2022/11/24 03:17:24;;;;;;;;;;;8.70;99.90;;;;;;5095607;28;20335;-71
2022/11/24 03:19:49;;;;;;;;;;;8.70;99.90;;;;;;5095829;28;20326;-71
2022/11/24 03:22:15;;;;;;;;;;;8.70;99.90;;;;;;5095430;28;19908;-70
2022/11/24 03:24:40;;;;;;;;;;;8.70;99.90;;;;;;5095457;28;19908;-71
2022/11/24 03:27:06;;;;;;;;;;;8.60;99.90;;;;;;5095388;28;19908;-72
2022/11/24 03:29:31;;;;;;;;;;;8.60;99.90;;;;;;5095632;28;19908;-72
2022/11/24 03:31:58;;;;;;;;;;;8.60;99.90;;;;;;5095289;28;19943;-71
2022/11/24 03:34:24;;;;;;;;;;;8.50;99.90;;;;;;5095486;28;19912;-71
2022/11/24 03:36:49;;;;;;;;;;;8.60;99.90;;;;;;5095186;28;20366;-71
2022/11/24 03:39:15;;;;;;;;;;;8.50;99.90;;;;;;5095703;28;20346;-70
2022/11/24 03:41:40;;;;;;;;;;;8.50;99.90;;;;;;5095120;28;19915;-71
2022/11/24 03:44:06;;;;;;;;;;;8.40;99.90;;;;;;5076778;28;20330;-72
2022/11/24 03:46:31;;;;;;;;;;;8.40;99.90;;;;;;5095026;28;19961;-72
2022/11/24 03:48:57;;;;;;;;;;;8.40;99.90;;;;;;5094902;28;20003;-71
2022/11/24 03:51:22;;;;;;;;;;;8.40;99.90;;;;;;5095312;28;19915;-73
2022/11/24 03:53:48;;;;;;;;;;;8.40;99.90;;;;;;5094814;28;19917;-72
2022/11/24 03:56:13;;;;;;;;;;;8.40;99.90;;;;;;5094890;28;19923;-72
2022/11/24 03:58:39;;;;;;;;;;;8.40;99.90;;;;;;5094876;28;19908;-72
2022/11/24 04:01:04;;;;;;;;;;;8.50;99.90;;;;;;5095265;28;20332;-72
2022/11/24 04:03:30;;;;;;;;;;;8.60;99.90;;;;;;5094751;28;19908;-72
2022/11/24 04:05:55;;;;;;;;;;;8.60;99.90;;;;;;5097162;28;20413;-71
2022/11/24 04:08:21;;;;;;;;;;;8.70;99.90;;;;;;5096906;28;19957;-71
2022/11/24 04:10:50;;;;;;;;;;;8.70;99.90;;;;;;5097434;28;19908;-71
2022/11/24 04:13:17;;;;;;;;;;;8.70;99.90;;;;;;5095536;28;19912;-71
2022/11/24 04:15:43;;;;;;;;;;;8.70;99.90;;;;;;5094732;28;19958;-71
2022/11/24 04:18:09;;;;;;;;;;;8.70;99.90;;;;;;5094585;28;19912;-72
2022/11/24 04:20:35;;;;;;;;;;;8.70;99.90;;;;;;5094650;28;20346;-70
2022/11/24 04:23:00;;;;;;;;;;;8.80;99.90;;;;;;5094604;28;19909;-72
2022/11/24 04:25:26;;;;;;;;;;;8.80;99.90;;;;;;5094306;28;19908;-72
2022/11/24 04:27:52;;;;;;;;;;;8.80;99.90;;;;;;5094563;28;20045;-73
2022/11/24 04:30:18;;;;;;;;;;;8.90;99.90;;;;;;5094219;28;20429;-70
2022/11/24 04:32:44;;;;;;;;;;;8.90;99.90;;;;;;5094163;28;19951;-73
2022/11/24 04:35:09;;;;;;;;;;;9.00;99.90;;;;;;5094155;28;20372;-71
2022/11/24 04:37:35;;;;;;;;;;;9.00;99.90;;;;;;5094633;28;19908;-72
2022/11/24 04:40:01;;;;;;;;;;;8.90;99.90;;;;;;5094063;28;19915;-71
2022/11/24 04:42:26;;;;;;;;;;;8.90;99.90;;;;;;5094071;28;19909;-72
2022/11/24 04:44:52;;;;;;;;;;;8.90;99.90;;;;;;5093961;28;20285;-71
2022/11/24 04:47:19;;;;;;;;;;;8.90;99.90;;;;;;5094221;28;20327;-73
2022/11/24 04:49:47;;;;;;;;;;;8.90;99.90;;;;;;5093925;28;19912;-72
2022/11/24 04:52:13;;;;;;;;;;;8.90;99.90;;;;;;5093703;28;19920;-71
2022/11/24 04:54:39;;;;;;;;;;;8.90;99.90;;;;;;5094023;28;19919;-71
2022/11/24 04:57:04;;;;;;;;;;;8.80;99.90;;;;;;5093827;28;19919;-71
2022/11/24 04:59:30;;;;;;;;;;;8.80;99.90;;;;;;5093813;28;19909;-70
2022/11/24 05:01:55;;;;;;;;;;;8.80;99.90;;;;;;5094827;28;19961;-70
2022/11/24 05:04:21;;;;;;;;;;;8.90;99.90;;;;;;5094077;28;19915;-70
2022/11/24 05:06:46;;;;;;;;;;;8.80;99.90;;;;;;5093738;28;19908;-72
2022/11/24 05:09:15;;;;;;;;;;;8.80;99.90;;;;;;5093426;28;20423;-73
2022/11/24 05:11:41;;;;;;;;;;;8.90;99.90;;;;;;5093681;28;19908;-71
2022/11/24 05:14:07;;;;;;;;;;;8.90;99.90;;;;;;5094180;28;20385;-71
2022/11/24 05:16:32;;;;;;;;;;;8.90;99.90;;;;;;5093658;28;19908;-70
2022/11/24 05:18:58;;;;;;;;;;;8.90;99.90;;;;;;5093636;28;19912;-71
2022/11/24 05:21:23;;;;;;;;;;;8.90;99.90;;;;;;5093859;28;19908;-70
2022/11/24 05:23:49;;;;;;;;;;;8.90;99.90;;;;;;5093561;28;19908;-71
2022/11/24 05:26:14;;;;;;;;;;;8.90;99.90;;;;;;5093549;28;20435;-71
2022/11/24 05:28:40;;;;;;;;;;;8.90;99.90;;;;;;5093558;28;19908;-71
2022/11/24 05:31:05;;;;;;;;;;;8.90;99.90;;;;;;5093776;28;19915;-71
2022/11/24 05:33:32;;;;;;;;;;;9.00;99.90;;;;;;5093414;28;19912;-72
2022/11/24 05:36:04;;;;;;;;;;;9.00;99.90;;;;;;5093473;28;20405;-71
2022/11/24 05:38:30;;;;;;;;;;;9.00;99.90;;;;;;5093630;28;19931;-72
2022/11/24 05:41:03;;;;;;;;;;;9.00;99.90;;;;;;5093658;28;20373;-71
2022/11/24 05:43:28;;;;;;;;;;;9.00;99.90;;;;;;5093857;28;19915;-72
2022/11/24 05:45:57;;;;;;;;;;;9.00;99.90;;;;;;5093337;28;19912;-71
2022/11/24 05:48:22;;;;;;;;;;;9.00;99.90;;;;;;5093840;28;19915;-72
2022/11/24 05:50:52;;;;;;;;;;;9.00;99.90;;;;;;5093575;28;19908;-72
2022/11/24 05:53:17;;;;;;;;;;;9.00;99.90;;;;;;5093022;28;19973;-71
2022/11/24 05:55:43;;;;;;;;;;;9.00;99.90;;;;;;5093242;28;19908;-70
2022/11/24 05:58:09;;;;;;;;;;;9.10;99.90;;;;;;5093520;28;19915;-69
2022/11/24 06:00:34;;;;;;;;;;;9.10;99.90;;;;;;5093732;28;19951;-71
2022/11/24 06:03:00;;;;;;;;;;;9.10;99.90;;;;;;5093459;28;19908;-71
2022/11/24 06:05:27;;;;;;;;;;;9.00;99.90;;;;;;5075056;28;19947;-71
2022/11/24 06:07:52;;;;;;;;;;;9.10;99.90;;;;;;5093447;28;19915;-69
2022/11/24 06:10:19;;;;;;;;;;;9.10;99.90;;;;;;5093138;28;19908;-72
2022/11/24 06:12:44;;;;;;;;;;;9.10;99.90;;;;;;5093423;28;19983;-71
2022/11/24 06:15:10;;;;;;;;;;;9.10;99.90;;;;;;5093299;28;19912;-71
2022/11/24 06:17:35;;;;;;;;;;;9.10;99.90;;;;;;5093093;28;19909;-71
2022/11/24 06:20:01;;;;;;;;;;;9.10;99.90;;;;;;5093041;28;20332;-70
2022/11/24 06:22:27;;;;;;;;;;;9.10;99.90;;;;;;5095353;28;19915;-71
2022/11/24 06:24:52;;;;;;;;;;;9.10;99.90;;;;;;5078397;28;20002;-71
2022/11/24 06:27:18;;;;;;;;;;;9.10;99.90;;;;;;5096800;28;19975;-71
2022/11/24 06:29:43;;;;;;;;;;;9.10;99.90;;;;;;5096522;28;19908;-70
2022/11/24 06:32:09;;;;;;;;;;;9.20;99.90;;;;;;5097039;28;19908;-72
2022/11/24 06:34:34;;;;;;;;;;;9.20;99.90;;;;;;5096378;28;19967;-70
2022/11/24 06:37:00;;;;;;;;;;;9.10;99.90;;;;;;5096677;28;20006;-72
2022/11/24 06:39:26;;;;;;;;;;;9.10;99.90;;;;;;5096336;28;20334;-72
2022/11/24 06:41:52;;;;;;;;;;;9.10;99.90;;;;;;5077963;28;19943;-71
2022/11/24 06:44:17;;;;;;;;;;;9.20;99.90;;;;;;5096159;28;19916;-71
2022/11/24 06:46:43;;;;;;;;;;;9.30;99.90;;;;;;5096146;28;19965;-71
2022/11/24 06:49:09;;;;;;;;;;;9.40;99.90;;;;;;5096672;28;19915;-72
2022/11/24 06:51:34;;;;;;;;;;;9.40;99.90;;;;;;5096171;28;19912;-70
2022/11/24 06:54:00;;;;;;;;;;;9.30;99.90;;;;;;5096292;28;20324;-71
2022/11/24 06:56:26;;;;;;;;;;;9.30;99.90;;;;;;5096027;28;19909;-71
2022/11/24 06:58:52;;;;;;;;;;;9.30;99.90;;;;;;5095954;28;19915;-72
2022/11/24 07:01:21;;;;;;;;;;;9.30;99.90;;;;;;5096737;28;19908;-71
2022/11/24 07:03:47;;;;;;;;;;;9.30;99.90;;;;;;5095874;28;20326;-71
2022/11/24 07:06:13;;;;;;;;;;;9.20;99.90;;;;;;5095840;28;19915;-72
2022/11/24 07:08:38;;;;;;;;;;;9.20;99.90;;;;;;5096315;28;19947;-72
2022/11/24 07:11:05;;;;;;;;;;;9.20;99.90;;;;;;5095711;28;19919;-70
2022/11/24 07:13:31;;;;;;;;;;;9.20;99.90;;;;;;5095565;28;20015;-71
2022/11/24 07:15:56;;;;;;;;;;;9.20;99.90;;;;;;5095881;28;19952;-71
2022/11/24 07:18:21;;;;;;;;;;;9.20;99.90;;;;;;5095559;28;19912;-72
2022/11/24 07:20:47;;;;;;;;;;;9.20;99.90;;;;;;5096122;28;20451;-71
2022/11/24 07:23:12;;;;;;;;;;;9.20;99.90;;;;;;5095803;28;19908;-71
2022/11/24 07:25:38;;;;;;;;;;;9.20;99.90;;;;;;5095460;28;19908;-71
2022/11/24 07:28:04;;;;;;;;;;;9.20;99.90;;;;;;5095711;28;20259;-72
2022/11/24 07:30:30;;;;;;;;;;;9.20;99.90;;;;;;5095313;28;19908;-71
2022/11/24 07:33:02;;;;;;;;;;;9.30;99.90;;;;;;5095028;28;19935;-72
2022/11/24 07:35:28;;;;;;;;;;;9.30;99.90;;;;;;5095202;28;20266;-72
2022/11/24 07:37:54;;;;;;;;;;;9.30;99.90;;;;;;5095727;28;19908;-69
2022/11/24 07:40:20;;;;;;;;;;;9.40;99.90;;;;;;5095112;28;19963;-71
2022/11/24 07:42:45;;;;;;;;;;;9.40;99.90;;;;;;5095032;28;20377;-71
2022/11/24 07:45:11;;;;;;;;;;;9.50;99.90;;;;;;5094992;28;19909;-71
2022/11/24 07:47:39;;;;;;;;;;;9.50;99.90;;;;;;5095273;28;19995;-71
2022/11/24 07:50:08;;;;;;;;;;;9.50;99.90;;;;;;5094935;28;19912;-71
2022/11/24 07:52:34;;;;;;;;;;;9.50;99.90;;;;;;5094681;28;19966;-72
2022/11/24 07:54:59;;;;;;;;;;;9.50;99.90;;;;;;5094795;28;20282;-71
2022/11/24 07:57:25;;;;;;;;;;;9.60;99.90;;;;;;5095095;28;19912;-73
2022/11/24 07:59:50;;;;;;;;;;;9.70;99.90;;;;;;5094775;28;19915;-70
2022/11/24 08:02:16;;;;;;;;;;;9.70;99.90;;;;;;5094830;28;19915;-71
2022/11/24 08:04:41;;;;;;;;;;;9.60;99.90;;;;;;5080684;28;19999;-77
2022/11/24 08:07:07;;;;;;;;;;;9.70;99.90;;;;;;5074023;28;19924;-75
2022/11/24 08:09:32;;;;;;;;;;;9.70;99.90;;;;;;5073795;28;19962;-76
2022/11/24 08:11:58;;;;;;;;;;;9.70;99.90;;;;;;5073834;28;20385;-73
2022/11/24 08:14:23;;;;;;;;;;;9.80;99.90;;;;;;5071279;28;19916;-73
2022/11/24 08:16:49;;;;;;;;;;;9.80;99.90;;;;;;5083595;28;19998;-72
2022/11/24 08:19:14;;;;;;;;;;;9.80;99.90;;;;;;5094634;28;19912;-72
2022/11/24 08:21:40;;;;;;;;;;;9.90;99.90;;;;;;5094652;28;19931;-73
2022/11/24 08:24:06;;;;;;;;;;;9.90;99.90;;;;;;5081187;28;19912;-73
2022/11/24 08:26:31;;;;;;;;;;;9.90;99.90;;;;;;5074619;28;19908;-71
2022/11/24 08:28:57;;;;;;;;;;;10.00;99.90;;;;;;5074306;28;20290;-73
2022/11/24 08:31:24;;;;;;;;;;;10.00;99.90;;;;;;5073777;28;20390;-73
2022/11/24 08:33:50;;;;;;;;;;;10.00;99.90;;;;;;5073771;28;20027;-76
2022/11/24 08:36:17;;;;;;;;;;;10.00;99.90;;;;;;5056015;28;20381;-76
2022/11/24 08:38:43;;;;;;;;;;;10.10;99.90;;;;;;5074141;28;19991;-78
2022/11/24 08:41:13;;;;;;;;;;;10.10;99.90;;;;;;5074677;28;20436;-77
2022/11/24 08:43:38;;;;;;;;;;;10.20;99.90;;;;;;5076637;28;19912;-72
2022/11/24 08:46:08;;;;;;;;;;;10.30;99.90;;;;;;5075740;28;19912;-72
2022/11/24 08:48:34;;;;;;;;;;;10.30;99.90;;;;;;5073753;28;19995;-76
2022/11/24 08:51:05;;;;;;;;;;;10.40;99.90;;;;;;5074006;28;19962;-78
2022/11/24 08:53:30;;;;;;;;;;;10.50;99.90;;;;;;5072892;28;20378;-75
2022/11/24 08:55:59;;;;;;;;;;;10.60;99.90;;;;;;5055274;28;20005;-74
2022/11/24 08:58:25;;;;;;;;;;;10.60;99.90;;;;;;5074625;28;20433;-77
2022/11/24 09:00:50;;;;;;;;;;;10.70;99.90;;;;;;5073547;28;19939;-75
2022/11/24 09:03:16;;;;;;;;;;;10.80;99.90;;;;;;5076977;28;19912;-75
2022/11/24 09:05:41;;;;;;;;;;;10.80;99.90;;;;;;5086247;28;20402;-75
2022/11/24 09:08:07;;;;;;;;;;;10.90;99.90;;;;;;5093974;28;19909;-74
2022/11/24 09:10:33;;;;;;;;;;;10.90;99.90;;;;;;5073645;28;19916;-73
2022/11/24 09:12:58;;;;;;;;;;;10.90;99.90;;;;;;5074004;28;19920;-75
2022/11/24 09:15:24;;;;;;;;;;;11.00;99.90;;;;;;5073486;28;20286;-77
2022/11/24 09:17:49;;;;;;;;;;;11.00;99.90;;;;;;5074025;28;20298;-77
2022/11/24 09:20:15;;;;;;;;;;;11.10;99.90;;;;;;5073466;28;19912;-76
2022/11/24 09:22:41;;;;;;;;;;;11.20;99.90;;;;;;5055565;28;19962;-77
2022/11/24 09:25:08;;;;;;;;;;;11.30;99.90;;;;;;5073210;28;19931;-77
2022/11/24 09:27:33;;;;;;;;;;;11.30;99.90;;;;;;5069006;28;19909;-74
2022/11/24 09:29:59;;;;;;;;;;;11.40;99.90;;;;;;5077916;28;20390;-74
2022/11/24 09:32:24;;;;;;;;;;;11.60;99.90;;;;;;5072383;28;19913;-73
2022/11/24 09:34:50;;;;;;;;;;;11.80;99.90;;;;;;5073349;28;19916;-76
2022/11/24 09:37:16;;;;;;;;;;;12.00;99.90;;;;;;5086161;28;19914;-76
2022/11/24 09:39:41;;;;;;;;;;;12.10;99.90;;;;;;5092092;28;19919;-75
2022/11/24 09:42:12;;;;;;;;;;;12.20;99.90;;;;;;5073224;28;19912;-73
2022/11/24 09:44:47;;;;;;;;;;;12.10;99.90;;;;;;5073854;28;19916;-73
2022/11/24 09:47:18;;;;;;;;;;;11.90;99.90;;;;;;5086449;28;19913;-74
2022/11/24 09:49:53;;;;;;;;;;;11.90;99.90;;;;;;5073097;28;19908;-80
2022/11/24 09:52:37;;;;;;;;;;;12.00;99.90;;;;;;5072870;28;20290;-74
2022/11/24 09:55:03;;;;;;;;;;;12.10;99.90;;;;;;5073682;28;20003;-73
2022/11/24 09:57:34;;;;;;;;;;;12.00;99.90;;;;;;5077356;28;19919;-73
2022/11/24 10:00:01;;;;;;;;;;;12.20;99.90;;;;;;5077683;28;19909;-73
2022/11/24 10:02:26;;;;;;;;;;;12.30;99.90;;;;;;5077706;28;19983;-73
2022/11/24 10:04:53;;;;;;;;;;;12.30;99.90;;;;;;5094505;28;19991;-73
2022/11/24 10:07:44;;;;;;;;;;;12.20;99.90;;;;;;5078589;28;19913;-74
2022/11/24 10:10:22;;;;;;;;;;;12.20;99.90;;;;;;5076486;28;20371;-73
2022/11/24 10:12:52;;;;;;;;;;;12.10;99.90;;;;;;5087823;28;19912;-77
2022/11/24 10:15:24;;;;;;;;;;;12.10;99.90;;;;;;5083766;28;19955;-76
2022/11/24 10:17:58;;;;;;;;;;;12.10;99.90;;;;;;5078334;28;19908;-73
2022/11/24 10:20:39;;;;;;;;;;;12.20;99.90;;;;;;5077659;28;19912;-75
2022/11/24 10:23:32;;;;;;;;;;;12.40;99.90;;;;;;5086810;28;19913;-74
2022/11/24 10:26:05;;;;;;;;;;;12.80;99.90;;;;;;5076276;28;19912;-76
2022/11/24 10:28:34;;;;;;;;;;;12.70;99.90;;;;;;5078814;28;19912;-73
2022/11/24 10:31:19;;;;;;;;;;;12.60;99.90;;;;;;5076330;28;19913;-79
2022/11/24 10:33:45;;;;;;;;;;;12.90;99.90;;;;;;5058332;28;20449;-79
2022/11/24 10:36:15;;;;;;;;;;;13.00;99.90;;;;;;5057694;28;19952;-80
2022/11/24 10:38:58;;;;;;;;;;;13.10;99.90;;;;;;5080032;28;19913;-73
2022/11/24 10:41:29;;;;;;;;;;;13.30;99.90;;;;;;5066363;28;19912;-78
2022/11/24 10:43:56;;;;;;;;;;;13.40;99.90;;;;;;5078017;28;20290;-75
2022/11/24 10:46:23;;;;;;;;;;;13.50;99.90;;;;;;5078659;28;19920;-80
2022/11/24 10:48:50;;;;;;;;;;;13.50;99.90;;;;;;5076750;28;19950;-74
2022/11/24 10:51:35;;;;;;;;;;;13.40;99.90;;;;;;5075579;28;19963;-76
2022/11/24 10:54:30;;;;;;;;;;;13.30;99.90;;;;;;5079301;28;20282;-77
2022/11/24 10:56:56;;;;;;;;;;;13.20;99.90;;;;;;5065835;28;19923;-78
2022/11/24 10:59:24;;;;;;;;;;;13.30;99.90;;;;;;5092677;28;19912;-76
2022/11/24 11:01:50;;;;;;;;;;;13.30;99.90;;;;;;5082471;28;19913;-77
2022/11/24 11:04:21;;;;;;;;;;;13.30;99.90;;;;;;5057589;28;19973;-78
2022/11/24 11:06:46;;;;;;;;;;;13.20;99.90;;;;;;5074870;28;19919;-79
2022/11/24 11:09:19;;;;;;;;;;;13.20;99.90;;;;;;5075374;28;20290;-74
2022/11/24 11:11:47;;;;;;;;;;;13.30;99.90;;;;;;5082209;28;19923;-76
2022/11/24 11:14:27;;;;;;;;;;;13.30;99.90;;;;;;5093903;28;20301;-79
2022/11/24 11:16:54;;;;;;;;;;;13.30;99.90;;;;;;5095001;28;19991;-76
2022/11/24 11:19:25;;;;;;;;;;;13.10;99.90;;;;;;5094444;28;20364;-75
2022/11/24 11:22:09;;;;;;;;;;;13.00;99.90;;;;;;5095573;28;19908;-79
2022/11/24 11:24:36;;;;;;;;;;;12.90;99.90;;;;;;5084205;28;19970;-79
2022/11/24 11:27:15;;;;;;;;;;;12.90;99.90;;;;;;5075615;28;20374;-74
2022/11/24 11:29:41;;;;;;;;;;;12.90;99.90;;;;;;5079247;28;19916;-72
2022/11/24 11:32:23;;;;;;;;;;;13.00;99.90;;;;;;5074765;28;20005;-73
2022/11/24 11:34:49;;;;;;;;;;;13.10;99.90;;;;;;5074893;28;19912;-73
2022/11/24 11:37:16;;;;;;;;;;;13.30;99.90;;;;;;5077084;28;19912;-73
2022/11/24 11:39:44;;;;;;;;;;;13.40;99.90;;;;;;5078494;28;19908;-72
2022/11/24 11:42:28;;;;;;;;;;;13.50;99.90;;;;;;5059406;28;20290;-73
2022/11/24 11:44:59;;;;;;;;;;;13.60;99.90;;;;;;5078947;28;19944;-72
2022/11/24 11:47:40;;;;;;;;;;;13.60;99.90;;;;;;5076688;28;19919;-72
2022/11/24 11:50:12;;;;;;;;;;;13.60;99.90;;;;;;5075335;28;19934;-73
2022/11/24 11:52:38;;;;;;;;;;;13.60;99.90;;;;;;5074500;28;19920;-73
2022/11/24 11:55:33;;;;;;;;;;;13.60;99.90;;;;;;5056612;28;20385;-73
2022/11/24 11:58:09;;;;;;;;;;;13.60;99.90;;;;;;5052996;28;19946;-72
2022/11/24 12:00:37;;;;;;;;;;;13.70;99.90;;;;;;5075122;28;19908;-72
2022/11/24 12:03:24;;;;;;;;;;;13.70;99.90;;;;;;5075273;28;19931;-72
2022/11/24 12:06:09;;;;;;;;;;;13.70;99.90;;;;;;5056555;28;19960;-73
2022/11/24 12:08:51;;;;;;;;;;;13.50;99.90;;;;;;5056508;28;19908;-73
2022/11/24 12:11:19;;;;;;;;;;;13.40;99.90;;;;;;5074633;28;19955;-73
2022/11/24 12:13:57;;;;;;;;;;;13.40;99.90;;;;;;5074519;28;20018;-72
2022/11/24 12:16:36;;;;;;;;;;;13.30;99.90;;;;;;5073292;28;19915;-73
2022/11/24 12:19:09;;;;;;;;;;;13.30;99.90;;;;;;5074185;28;19908;-72
2022/11/24 12:21:46;;;;;;;;;;;13.40;99.90;;;;;;5074498;28;19913;-73
2022/11/24 12:24:11;;;;;;;;;;;13.40;99.90;;;;;;5074419;28;20416;-72
2022/11/24 12:26:45;;;;;;;;;;;13.50;99.90;;;;;;5074279;28;19908;-72
2022/11/24 12:29:26;;;;;;;;;;;13.50;99.90;;;;;;5074044;28;19930;-73
2022/11/24 12:31:51;;;;;;;;;;;13.50;99.90;;;;;;5074183;28;19916;-73
2022/11/24 12:34:30;;;;;;;;;;;13.50;99.90;;;;;;5074440;28;19912;-72
2022/11/24 12:37:05;;;;;;;;;;;13.40;99.90;;;;;;5073892;28;20004;-72
2022/11/24 12:39:57;;;;;;;;;;;13.40;99.90;;;;;;5074225;28;20438;-72
2022/11/24 12:42:42;;;;;;;;;;;13.30;99.90;;;;;;5068851;28;19915;-72
2022/11/24 12:45:08;;;;;;;;;;;13.30;99.90;;;;;;5074391;28;19908;-73
2022/11/24 12:47:39;;;;;;;;;;;13.30;99.90;;;;;;5073714;28;20369;-72
2022/11/24 12:50:04;;;;;;;;;;;13.30;99.90;;;;;;5073673;28;19931;-71
2022/11/24 12:52:32;;;;;;;;;;;13.40;99.90;;;;;;5073435;28;20378;-73
2022/11/24 12:54:58;;;;;;;;;;;13.40;99.90;;;;;;5073678;28;19963;-73
2022/11/24 12:57:33;;;;;;;;;;;13.50;99.90;;;;;;5073647;28;19930;-73
2022/11/24 13:00:05;;;;;;;;;;;13.50;99.90;;;;;;5073612;28;20375;-72
2022/11/24 13:02:39;;;;;;;;;;;13.60;99.90;;;;;;5074365;28;19912;-72
2022/11/24 13:05:17;;;;;;;;;;;13.60;99.90;;;;;;5073843;28;19928;-71
2022/11/24 13:07:42;;;;;;;;;;;13.60;99.90;;;;;;5073749;28;19916;-79
2022/11/24 13:10:23;;;;;;;;;;;13.60;99.90;;;;;;5074268;28;19913;-77
2022/11/24 13:12:56;;;;;;;;;;;13.60;99.90;;;;;;5055747;28;19999;-79
2022/11/24 13:15:21;;;;;;;;;;;13.60;99.90;;;;;;5081987;28;19964;-78
2022/11/24 13:17:47;;;;;;;;;;;13.70;99.90;;;;;;5073293;28;19913;-79
2022/11/24 13:20:19;;;;;;;;;;;13.80;99.90;;;;;;5073108;28;19912;-80
2022/11/24 13:22:54;;;;;;;;;;;13.80;99.90;;;;;;5074011;28;19916;-78
2022/11/24 13:25:20;;;;;;;;;;;13.80;99.90;;;;;;5072604;28;19912;-77
2022/11/24 13:27:51;;;;;;;;;;;13.70;99.90;;;;;;5072983;28;19923;-79
2022/11/24 13:30:32;;;;;;;;;;;13.60;99.90;;;;;;5055759;28;20302;-77
2022/11/24 13:33:10;;;;;;;;;;;13.50;99.90;;;;;;5078994;28;19920;-75
2022/11/24 13:35:36;;;;;;;;;;;13.50;99.90;;;;;;5084068;28;19920;-77
2022/11/24 13:38:04;;;;;;;;;;;13.50;99.90;;;;;;5062836;28;19935;-78
2022/11/24 13:40:29;;;;;;;;;;;13.60;99.90;;;;;;5077621;28;19962;-79
2022/11/24 13:42:55;;;;;;;;;;;13.60;99.90;;;;;;5094122;28;20393;-76
2022/11/24 13:45:39;;;;;;;;;;;13.60;99.90;;;;;;5096010;28;20270;-77
2022/11/24 13:48:19;;;;;;;;;;;13.50;99.90;;;;;;5077121;28;19913;-76
2022/11/24 13:50:48;;;;;;;;;;;13.70;99.90;;;;;;5077301;28;19951;-80
2022/11/24 13:53:16;;;;;;;;;;;13.90;99.90;;;;;;5076306;28;20395;-71
2022/11/24 13:55:51;;;;;;;;;;;13.90;99.90;;;;;;5097354;28;19919;-75
2022/11/24 13:58:17;;;;;;;;;;;13.90;99.90;;;;;;5088515;28;19909;-72
2022/11/24 14:01:01;;;;;;;;;;;13.80;99.90;;;;;;5090823;28;20305;-79
2022/11/24 14:03:40;;;;;;;;;;;13.90;99.90;;;;;;5092638;28;20336;-74
2022/11/24 14:06:13;;;;;;;;;;;14.10;99.90;;;;;;5076422;28;19916;-73
2022/11/24 14:08:38;;;;;;;;;;;14.00;99.90;;;;;;5076929;28;19936;-81
2022/11/24 14:11:11;;;;;;;;;;;13.90;99.90;;;;;;5076710;28;20267;-77
2022/11/24 14:13:36;;;;;;;;;;;13.90;99.90;;;;;;5076482;28;19973;-78
2022/11/24 14:16:08;;;;;;;;;;;13.90;99.90;;;;;;5078390;28;20395;-77
2022/11/24 14:18:37;;;;;;;;;;;13.80;99.90;;;;;;5096909;28;20045;-75
2022/11/24 14:21:22;;;;;;;;;;;13.80;99.90;;;;;;5097222;28;19965;-81
2022/11/24 14:23:52;;;;;;;;;;;13.70;99.90;;;;;;5086922;28;19908;-77
2022/11/24 14:26:20;;;;;;;;;;;13.70;99.90;;;;;;5076195;28;19912;-77
2022/11/24 14:28:46;;;;;;;;;;;13.70;99.90;;;;;;5087495;28;19912;-77
2022/11/24 14:31:19;;;;;;;;;;;13.70;99.90;;;;;;5087468;28;19912;-78